Time;durP1;ratioP1;P1;durP2;ratioP2;P2;SDS_P1;SDS_P2;PMS_P1;PMS_P2;Temp;Humidity;BMP_temperature;BMP_pressure;BME280_temperature;BME280_humidity;BME280_pressure;Samples;Min_cycle;Max_cycle;Signal;HPM_P1;HPM_P2
2022/08/18 00:00:20;;;;;;;6.43;3.85;;;;;;;16.28;86.46;95868.25;10322669;28;97006;-60
2022/08/18 00:05:23;;;;;;;7.80;3.80;;;;;;;16.28;86.83;95862.97;10324773;28;97144;-59
2022/08/18 00:10:27;;;;;;;5.88;3.60;;;;;;;16.36;86.46;95860.16;10332308;28;97241;-59
2022/08/18 00:15:31;;;;;;;4.80;4.18;;;;;;;16.42;86.86;95870.75;10327300;28;97962;-59
2022/08/18 00:20:50;;;;;;;7.28;3.90;;;;;;;16.42;86.47;95869.94;10327651;28;96873;-60
2022/08/18 00:25:56;;;;;;;6.93;4.30;;;;;;;16.39;86.56;95865.06;10320836;28;96804;-58
2022/08/18 00:31:02;;;;;;;6.95;4.43;;;;;;;16.42;86.55;95854.13;10319948;28;97221;-58
2022/08/18 00:36:05;;;;;;;6.38;4.05;;;;;;;16.39;86.59;95850.03;10323527;28;97051;-59
2022/08/18 00:41:08;;;;;;;5.05;4.53;;;;;;;16.29;86.57;95843.50;10316427;28;96818;-59
2022/08/18 00:46:17;;;;;;;5.55;4.57;;;;;;;16.22;86.88;95828.47;10324733;28;98781;-59
2022/08/18 00:51:24;;;;;;;5.72;3.75;;;;;;;16.18;86.81;95811.38;10322730;28;96697;-59
2022/08/18 00:56:32;;;;;;;7.72;3.60;;;;;;;16.10;86.60;95787.81;10322053;28;96850;-59
2022/08/18 01:01:38;;;;;;;6.47;4.03;;;;;;;15.95;86.85;95748.44;10329944;28;97254;-59
2022/08/18 01:06:45;;;;;;;5.35;3.55;;;;;;;16.04;86.54;95773.59;10327775;28;96779;-60
2022/08/18 01:11:50;;;;;;;4.32;3.42;;;;;;;16.04;86.21;95781.50;10320002;28;98712;-59
2022/08/18 01:22:26;;;;;;;8.52;3.75;;;;;;;15.99;86.24;95765.47;10326562;28;96966;-59
2022/08/18 01:27:31;;;;;;;;;;;;;;;16.00;86.32;95739.97;10321098;28;96769;-58
2022/08/18 01:32:33;;;;;;;4.70;3.35;;;;;;;15.94;85.72;95740.72;10314647;28;97694;-59
2022/08/18 01:37:37;;;;;;;5.57;4.00;;;;;;;15.95;85.85;95726.56;10319496;28;96816;-59
2022/08/18 01:42:44;;;;;;;4.40;3.22;;;;;;;15.95;85.60;95722.09;10327609;28;96942;-58
2022/08/18 01:47:49;;;;;;;3.97;3.40;;;;;;;15.98;85.52;95726.13;10335328;28;98939;-59
2022/08/18 01:52:52;;;;;;;;;;;;;;;16.02;85.47;95740.56;10320406;28;96769;-59
2022/08/18 01:57:56;;;;;;;5.68;4.00;;;;;;;15.95;85.88;95740.53;10335874;28;97621;-59
2022/08/18 02:03:01;;;;;;;5.87;4.23;;;;;;;15.85;86.51;95734.78;10335793;28;97771;-60
2022/08/18 02:08:05;;;;;;;5.38;4.18;;;;;;;15.79;86.64;95731.13;10340708;28;96834;-59
2022/08/18 02:13:09;;;;;;;7.72;4.57;;;;;;;15.78;86.26;95713.66;10337598;28;97140;-60
2022/08/18 02:18:14;;;;;;;6.57;4.77;;;;;;;15.76;86.51;95707.78;10337924;28;97056;-59
2022/08/18 02:23:37;;;;;;;9.23;5.17;;;;;;;15.66;87.25;95702.06;10326190;28;98068;-60
2022/08/18 02:28:42;;;;;;;6.13;4.85;;;;;;;15.68;87.56;95694.75;10333087;28;97231;-59
2022/08/18 02:33:47;;;;;;;6.97;4.65;;;;;;;15.75;87.61;95705.34;10339015;28;96734;-61
2022/08/18 02:38:54;;;;;;;9.70;4.70;;;;;;;15.75;87.33;95679.81;10334000;28;96768;-59
2022/08/18 02:44:05;;;;;;;7.20;5.18;;;;;;;15.95;87.60;95692.31;10334907;28;96716;-59
2022/08/18 02:49:08;;;;;;;7.63;5.60;;;;;;;15.82;87.74;95704.38;10337258;28;96804;-59
2022/08/18 02:54:11;;;;;;;8.50;5.70;;;;;;;15.83;87.59;95711.28;10335872;28;96714;-59
2022/08/18 02:59:18;;;;;;;8.45;5.85;;;;;;;15.84;87.88;95707.66;10341373;28;96750;-60
2022/08/18 03:04:24;;;;;;;7.57;5.15;;;;;;;15.94;87.87;95712.53;10336272;28;96842;-59
2022/08/18 03:09:33;;;;;;;6.78;5.88;;;;;;;15.85;87.55;95706.63;10329326;28;96850;-59
2022/08/18 03:14:39;;;;;;;7.45;6.53;;;;;;;15.91;87.67;95710.28;10327346;28;96888;-58
2022/08/18 03:19:43;;;;;;;8.73;5.45;;;;;;;15.96;87.26;95697.34;10331143;28;96944;-61
2022/08/18 03:24:49;;;;;;;10.95;6.40;;;;;;;16.01;87.84;95704.69;10323927;28;97158;-59
2022/08/18 03:29:53;;;;;;;7.32;5.30;;;;;;;16.06;87.14;95695.19;10329514;28;96811;-59
2022/08/18 03:34:56;;;;;;;6.40;5.07;;;;;;;16.01;87.58;95678.34;10331932;28;97850;-59
2022/08/18 03:39:59;;;;;;;5.93;5.03;;;;;;;15.86;87.67;95668.75;10314698;28;98972;-59
2022/08/18 03:45:05;;;;;;;7.72;5.93;;;;;;;15.80;87.45;95669.50;10329198;28;97910;-59
2022/08/18 03:50:20;;;;;;;9.00;5.53;;;;;;;15.84;87.61;95694.47;10330227;28;96853;-60
2022/08/18 03:55:23;;;;;;;8.65;5.70;;;;;;;15.91;87.59;95693.69;10318458;28;97770;-59
2022/08/18 04:00:27;;;;;;;10.05;6.28;;;;;;;15.90;87.10;95697.34;10316703;28;97006;-59
2022/08/18 04:05:31;;;;;;;7.20;5.93;;;;;;;15.84;87.03;95712.06;10327132;28;97204;-59
2022/08/18 04:10:34;;;;;;;6.63;5.70;;;;;;;15.71;87.79;95712.81;10331824;28;96723;-58
2022/08/18 04:15:38;;;;;;;8.23;6.05;;;;;;;15.60;87.74;95729.13;10327391;28;97000;-59
2022/08/18 04:20:41;;;;;;;9.03;5.93;;;;;;;15.47;87.00;95730.63;10321554;28;96789;-59
2022/08/18 04:26:01;;;;;;;6.82;5.18;;;;;;;15.37;87.09;95724.88;10321813;28;96891;-60
2022/08/18 04:31:08;;;;;;;8.70;5.88;;;;;;;15.41;87.85;95741.09;10322878;28;97303;-59
2022/08/18 04:36:15;;;;;;;7.75;6.00;;;;;;;15.39;88.12;95745.75;10324284;28;96849;-59
2022/08/18 04:41:25;;;;;;;10.27;6.68;;;;;;;15.43;88.47;95747.00;10322683;28;97143;-59
2022/08/18 04:46:31;;;;;;;11.63;6.57;;;;;;;15.47;88.17;95778.00;10327863;28;96902;-59
2022/08/18 04:51:34;;;;;;;11.50;6.88;;;;;;;15.48;88.41;95779.66;10337742;28;96798;-58
2022/08/18 04:56:57;;;;;;;9.65;6.55;;;;;;;15.41;88.49;95776.16;10317824;28;97948;-58
2022/08/18 05:02:04;;;;;;;10.20;6.28;;;;;;;15.37;89.75;95764.34;10329184;28;97312;-59
2022/08/18 05:07:09;;;;;;;8.70;6.78;;;;;;;15.53;88.74;95757.19;10328090;28;96887;-59
2022/08/18 05:12:14;;;;;;;8.30;6.10;;;;;;;15.48;88.09;95727.00;10314131;28;97090;-59
2022/08/18 05:17:18;;;;;;;;;;;;;;;15.62;88.16;95735.84;10318616;28;96893;-59
2022/08/18 05:22:21;;;;;;;11.05;5.97;;;;;;;15.65;87.57;95753.06;10325843;28;97056;-59
2022/08/18 05:27:34;;;;;;;8.38;5.07;;;;;;;15.67;88.08;95743.19;10318662;28;97248;-58
2022/08/18 05:32:42;;;;;;;7.18;4.85;;;;;;;15.66;87.34;95723.13;10328904;28;96768;-59
2022/08/18 05:38:16;;;;;;;6.07;4.50;;;;;;;15.71;87.44;95720.72;10322614;28;96886;-59
2022/08/18 05:43:19;;;;;;;5.18;4.15;;;;;;;15.79;87.54;95717.09;10322481;28;97899;-61
2022/08/18 05:48:24;;;;;;;6.68;4.47;;;;;;;15.87;87.56;95698.53;10327344;28;97871;-60
2022/08/18 05:58:50;;;;;;;5.78;4.47;;;;;;;16.06;87.16;95728.63;10325777;28;97147;-59
2022/08/18 06:03:58;;;;;;;5.82;5.32;;;;;;;16.12;87.33;95746.31;10328932;28;96769;-59
2022/08/18 06:09:12;;;;;;;8.65;5.85;;;;;;;16.22;87.79;95723.06;10319563;28;96799;-59
2022/08/18 06:14:16;;;;;;;9.50;4.87;;;;;;;16.37;87.35;95714.19;10314504;28;97051;-60
2022/08/18 06:19:39;;;;;;;7.43;4.30;;;;;;;16.42;87.05;95709.13;10322689;28;98551;-59
2022/08/18 06:24:50;;;;;;;6.15;4.22;;;;;;;16.50;86.31;95708.97;10321672;28;97030;-59
2022/08/18 06:30:04;;;;;;;5.95;4.32;;;;;;;16.59;86.33;95728.06;10329026;28;97072;-59
2022/08/18 06:35:18;;;;;;;6.35;5.22;;;;;;;16.75;86.67;95737.47;10329458;28;97080;-59
2022/08/18 06:40:20;;;;;;;5.90;4.28;;;;;;;16.97;86.10;95751.31;10332449;28;98247;-60
2022/08/18 06:45:31;;;;;;;5.68;4.60;;;;;;;17.23;85.35;95745.28;10336122;28;97093;-59
2022/08/18 06:50:47;;;;;;;7.82;5.00;;;;;;;17.41;85.50;95749.16;10337604;28;96862;-59
2022/08/18 06:55:51;;;;;;;5.90;4.28;;;;;;;17.65;85.37;95742.44;10336149;28;96752;-59
2022/08/18 07:01:00;;;;;;;6.90;4.82;;;;;;;17.83;84.03;95718.03;10336262;28;96861;-59
2022/08/18 07:06:09;;;;;;;7.38;4.95;;;;;;;17.96;83.72;95719.88;10335330;28;96998;-59
2022/08/18 07:11:19;;;;;;;7.57;5.38;;;;;;;17.92;83.52;95714.19;10336280;28;96616;-59
2022/08/18 07:16:25;;;;;;;8.57;5.07;;;;;;;18.03;83.11;95728.59;10335664;28;96862;-59
2022/08/18 07:22:02;;;;;;;6.90;5.70;;;;;;;18.09;84.02;95715.34;10335438;28;97194;-59
2022/08/18 07:27:07;;;;;;;6.07;5.05;;;;;;;18.03;83.08;95697.69;10334916;28;96898;-58
2022/08/18 07:32:15;;;;;;;5.20;4.70;;;;;;;18.04;82.68;95699.31;10335305;28;96874;-59
2022/08/18 07:37:29;;;;;;;6.13;4.43;;;;;;;18.05;81.80;95686.94;10334210;28;97604;-59
2022/08/18 07:42:38;;;;;;;5.22;4.57;;;;;;;18.12;81.89;95663.94;10335322;28;96782;-58
2022/08/18 07:48:04;;;;;;;5.15;4.55;;;;;;;18.17;81.16;95650.88;10329370;28;96774;-59
2022/08/18 07:53:45;;;;;;;7.03;4.90;;;;;;;18.11;81.79;95646.44;10334437;28;96818;-59
2022/08/18 07:59:07;;;;;;;5.63;5.07;;;;;;;18.04;81.26;95625.31;10333526;28;96807;-58
2022/08/18 08:04:15;;;;;;;7.55;5.32;;;;;;;18.12;82.39;95640.94;10333963;28;96785;-58
2022/08/18 08:09:41;;;;;;;5.82;4.93;;;;;;;18.22;82.19;95643.16;10334364;28;96789;-59
2022/08/18 08:14:46;;;;;;;4.30;3.78;;;;;;;18.35;80.34;95634.31;10332496;28;96830;-59
2022/08/18 08:20:02;;;;;;;4.93;4.35;;;;;;;18.44;79.98;95622.47;10334004;28;98739;-59
2022/08/18 08:25:16;;;;;;;4.43;4.03;;;;;;;18.61;80.58;95651.88;10329473;28;96908;-58
2022/08/18 08:30:46;;;;;;;4.93;4.43;;;;;;;18.88;80.18;95694.91;10334797;28;97125;-59
2022/08/18 08:35:54;;;;;;;4.25;3.83;;;;;;;19.15;78.98;95705.31;10321035;28;98020;-59
2022/08/18 08:41:02;;;;;;;3.90;3.50;;;;;;;19.32;78.41;95684.41;10333533;28;96718;-59
2022/08/18 08:46:11;;;;;;;4.05;3.60;;;;;;;19.49;77.01;95684.69;10332307;28;96863;-58
2022/08/18 08:51:31;;;;;;;4.63;4.22;;;;;;;19.62;77.69;95683.75;10326582;28;96703;-59
2022/08/18 08:56:50;;;;;;;5.93;4.55;;;;;;;19.86;77.54;95686.63;10332316;28;96806;-59
2022/08/18 09:02:07;;;;;;;4.55;3.83;;;;;;;20.00;76.90;95648.31;10322770;28;96765;-59
2022/08/18 09:07:28;;;;;;;4.85;4.07;;;;;;;20.21;76.91;95646.25;10332434;28;96773;-59
2022/08/18 09:12:59;;;;;;;3.83;3.40;;;;;;;20.23;74.92;95642.34;10332349;28;97212;-58
2022/08/18 09:18:20;;;;;;;5.03;3.58;;;;;;;20.26;75.11;95625.97;10330024;28;96863;-59
2022/08/18 09:23:26;;;;;;;4.25;3.78;;;;;;;20.32;72.80;95637.53;10323964;28;96829;-59
2022/08/18 09:28:57;;;;;;;5.55;3.95;;;;;;;20.44;73.15;95638.38;10332359;28;97840;-59
2022/08/18 09:34:26;;;;;;;4.57;4.18;;;;;;;20.53;73.41;95652.19;10331589;28;96922;-58
2022/08/18 09:45:05;;;;;;;4.78;4.00;;;;;;;20.63;71.39;95649.78;10280785;28;96919;-58
2022/08/18 09:50:37;;;;;;;4.88;3.63;;;;;;;20.74;72.65;95643.75;10285426;28;97277;-59
2022/08/18 09:56:01;;;;;;;6.05;3.63;;;;;;;20.86;70.52;95634.97;10280754;28;97015;-59
2022/08/18 10:01:38;;;;;;;4.13;3.70;;;;;;;20.89;69.24;95645.16;10285165;28;97664;-60
2022/08/18 10:06:44;;;;;;;4.80;4.22;;;;;;;20.91;67.72;95638.59;10282745;28;98786;-59
2022/08/18 10:12:05;;;;;;;6.57;4.20;;;;;;;20.94;67.37;95642.63;10284709;28;97205;-59
2022/08/18 10:17:26;;;;;;;4.20;3.80;;;;;;;21.06;68.05;95643.47;10331015;28;96882;-59
2022/08/18 10:22:40;;;;;;;4.82;4.32;;;;;;;21.22;67.22;95641.19;10337615;28;97455;-60
2022/08/18 10:27:50;;;;;;;4.20;3.80;;;;;;;21.37;65.18;95640.75;10337485;28;97710;-59
2022/08/18 10:32:54;;;;;;;4.45;3.75;;;;;;;21.32;65.79;95636.91;10327246;28;96779;-59
2022/08/18 10:38:00;;;;;;;5.80;4.07;;;;;;;21.35;65.61;95638.31;10336208;28;96740;-59
2022/08/18 10:43:10;;;;;;;4.93;3.80;;;;;;;21.44;65.47;95633.47;10337252;28;96893;-59
2022/08/18 10:48:34;;;;;;;4.40;4.00;;;;;;;21.48;66.86;95614.19;10336882;28;96884;-60
2022/08/18 10:53:48;;;;;;;3.65;3.22;;;;;;;21.61;64.58;95609.66;10336360;28;98558;-60
2022/08/18 10:59:04;;;;;;;4.28;3.88;;;;;;;21.63;64.56;95612.91;10330402;28;96798;-58
2022/08/18 11:04:21;;;;;;;3.97;3.42;;;;;;;21.71;63.32;95599.28;10335954;28;98762;-59
2022/08/18 11:09:40;;;;;;;4.35;3.65;;;;;;;21.82;63.80;95611.72;10336072;28;96810;-59
2022/08/18 11:15:00;;;;;;;4.10;3.70;;;;;;;21.79;62.19;95617.50;10336537;28;96874;-59
2022/08/18 11:20:30;;;;;;;4.95;3.72;;;;;;;21.65;63.05;95616.94;10336227;28;96742;-59
2022/08/18 11:25:37;;;;;;;4.30;3.90;;;;;;;21.73;63.85;95620.28;10334675;28;96791;-59
2022/08/18 11:30:43;;;;;;;4.53;4.10;;;;;;;21.75;63.82;95616.38;10334391;28;96837;-59
2022/08/18 11:35:52;;;;;;;3.80;3.42;;;;;;;21.67;63.12;95616.72;10335406;28;97398;-59
2022/08/18 11:41:12;;;;;;;4.55;3.58;;;;;;;21.49;62.89;95626.41;10334817;28;96742;-59
2022/08/18 11:46:28;;;;;;;5.18;3.85;;;;;;;21.41;63.65;95618.78;10335233;28;96845;-60
2022/08/18 11:51:35;;;;;;;4.47;3.75;;;;;;;21.32;62.76;95618.31;10334313;28;96770;-60
2022/08/18 11:56:37;;;;;;;;;;;;;;;21.24;64.20;95616.03;10335155;28;96734;-59
2022/08/18 12:01:49;;;;;;;7.28;3.80;;;;;;;21.21;61.81;95631.59;10334728;28;96892;-58
2022/08/18 12:07:01;;;;;;;3.90;3.47;;;;;;;21.16;62.36;95636.81;10335285;28;97672;-59
2022/08/18 12:12:14;;;;;;;3.65;3.35;;;;;;;21.12;62.76;95637.25;10333514;28;97695;-58
2022/08/18 12:17:20;;;;;;;4.53;3.63;;;;;;;21.18;61.28;95635.53;10334366;28;96715;-60
2022/08/18 12:22:26;;;;;;;5.22;3.95;;;;;;;21.36;60.93;95645.22;10331986;28;97264;-59
2022/08/18 12:27:31;;;;;;;4.20;3.90;;;;;;;21.43;61.60;95645.94;10333741;28;96918;-59
2022/08/18 12:32:35;;;;;;;4.60;4.10;;;;;;;21.60;62.98;95645.25;10333178;28;96867;-58
2022/08/18 12:37:59;;;;;;;4.50;4.10;;;;;;;21.68;61.45;95642.28;10322240;28;96856;-58
2022/08/18 12:43:16;;;;;;;4.95;3.80;;;;;;;21.90;61.49;95654.94;10332532;28;96830;-58
2022/08/18 12:48:19;;;;;;;5.15;3.83;;;;;;;22.21;60.38;95635.13;10332935;28;98730;-58
2022/08/18 12:53:25;;;;;;;3.72;3.20;;;;;;;22.22;60.96;95632.22;10332651;28;97091;-59
2022/08/18 12:58:49;;;;;;;4.50;3.47;;;;;;;22.34;59.28;95618.88;10334521;28;96840;-58
2022/08/18 13:03:54;;;;;;;3.23;2.90;;;;;;;22.45;58.26;95622.53;10332107;28;96775;-60
2022/08/18 13:09:18;;;;;;;3.78;3.20;;;;;;;22.26;58.98;95619.25;10332441;28;98556;-58
2022/08/18 13:14:41;;;;;;;4.40;3.63;;;;;;;22.30;60.37;95616.94;10331994;28;96873;-58
2022/08/18 13:19:45;;;;;;;5.47;3.75;;;;;;;22.47;62.02;95596.53;10331624;28;97933;-59
2022/08/18 13:24:49;;;;;;;4.03;3.63;;;;;;;22.61;60.66;95611.19;10331652;28;97193;-60
2022/08/18 13:29:54;;;;;;;4.43;3.55;;;;;;;22.77;60.13;95609.59;10324830;28;96837;-58
2022/08/18 13:34:58;;;;;;;3.47;3.15;;;;;;;22.79;58.71;95609.34;10331745;28;98373;-58
2022/08/18 13:40:06;;;;;;;3.50;3.13;;;;;;;22.85;57.79;95607.56;10331565;28;96803;-59
2022/08/18 13:45:16;;;;;;;4.20;3.17;;;;;;;22.95;56.29;95608.53;10330387;28;97587;-59
2022/08/18 13:50:25;;;;;;;4.25;3.05;;;;;;;23.16;59.53;95603.53;10330975;28;97410;-59
2022/08/18 13:55:33;;;;;;;3.78;3.45;;;;;;;23.33;57.68;95599.03;10331196;28;96748;-58
2022/08/18 14:00:36;;;;;;;3.67;3.38;;;;;;;23.41;56.92;95597.00;10330159;28;96811;-58
2022/08/18 14:05:40;;;;;;;4.13;3.60;;;;;;;23.33;57.45;95601.72;10329632;28;96806;-58
2022/08/18 14:10:58;;;;;;;3.67;3.28;;;;;;;23.35;58.20;95604.13;10330505;28;96857;-58
2022/08/18 14:16:00;;;;;;;3.45;3.13;;;;;;;23.17;57.30;95605.19;10330803;28;96671;-58
2022/08/18 14:31:43;;;;;;;5.30;3.20;;;;;;;22.82;57.70;95598.19;10322257;28;96878;-58
2022/08/18 14:36:46;;;;;;;4.53;3.77;;;;;;;22.49;58.00;95589.13;10330416;28;96797;-58
2022/08/18 14:41:51;;;;;;;3.95;3.33;;;;;;;22.39;58.68;95589.72;10330225;28;98509;-58
2022/08/18 14:46:57;;;;;;;3.60;3.30;;;;;;;22.38;57.66;95595.28;10329675;28;96793;-58
2022/08/18 14:52:01;;;;;;;3.83;3.45;;;;;;;22.39;58.21;95602.22;10329558;28;96852;-58
2022/08/18 14:57:10;;;;;;;3.90;3.50;;;;;;;22.36;59.46;95616.00;10328729;28;96772;-58
2022/08/18 15:02:13;;;;;;;4.90;3.42;;;;;;;22.30;59.13;95620.41;10333616;28;96921;-59
2022/08/18 15:07:15;;;;;;;4.63;3.88;;;;;;;22.17;61.34;95623.34;10336528;28;96893;-59
2022/08/18 15:12:27;;;;;;;3.72;3.30;;;;;;;22.07;60.37;95629.25;10329326;28;97043;-58
2022/08/18 15:17:31;;;;;;;4.18;3.78;;;;;;;22.00;62.80;95632.03;10335991;28;96820;-58
2022/08/18 15:28:02;;;;;;;4.15;3.75;;;;;;;22.03;61.73;95628.13;10335928;28;97920;-58
2022/08/18 15:33:06;;;;;;;3.95;3.40;;;;;;;22.01;62.54;95624.88;10335490;28;97356;-58
2022/08/18 15:38:11;;;;;;;;;;;;;;;21.92;61.99;95626.28;10336367;28;96777;-58
2022/08/18 15:43:16;;;;;;;4.15;3.20;;;;;;;21.83;60.76;95628.50;10334161;28;97092;-58
2022/08/18 15:48:21;;;;;;;4.00;3.53;;;;;;;21.77;62.08;95632.91;10334158;28;96843;-59
2022/08/18 15:53:26;;;;;;;5.32;3.58;;;;;;;21.66;61.32;95631.06;10335075;28;96783;-59
2022/08/18 15:58:33;;;;;;;4.38;3.22;;;;;;;21.54;59.44;95639.00;10330353;28;98688;-58
2022/08/18 16:03:37;;;;;;;4.53;3.45;;;;;;;21.41;60.08;95642.69;10328870;28;97171;-58
2022/08/18 16:08:41;;;;;;;5.03;3.30;;;;;;;21.35;58.58;95642.81;10330293;28;96908;-58
2022/08/18 16:13:47;;;;;;;4.60;3.65;;;;;;;21.36;60.35;95637.25;10330273;28;97942;-58
2022/08/18 16:18:52;;;;;;;5.85;3.53;;;;;;;21.30;61.17;95640.84;10330419;28;97175;-58
2022/08/18 16:23:54;;;;;;;;;;;;;;;21.19;60.98;95642.47;10318097;28;97979;-58
2022/08/18 16:28:58;;;;;;;4.70;3.40;;;;;;;21.07;61.66;95636.31;10307214;28;97143;-58
2022/08/18 16:34:04;;;;;;;5.53;4.70;;;;;;;20.96;63.17;95640.56;10300068;28;96912;-59
2022/08/18 16:39:07;;;;;;;5.50;4.05;;;;;;;20.90;62.47;95641.47;10318586;28;97124;-58
2022/08/18 16:44:14;;;;;;;4.57;4.17;;;;;;;20.91;63.61;95638.59;10325003;28;97186;-59
2022/08/18 16:49:18;;;;;;;4.80;4.10;;;;;;;20.92;63.17;95639.41;10315701;28;96755;-59
2022/08/18 16:54:21;;;;;;;;;;;;;;;20.96;63.03;95635.25;10313189;28;98871;-59
2022/08/18 17:04:46;;;;;;;5.00;4.50;;;;;;;20.91;65.00;95617.34;10323547;28;97182;-58
2022/08/18 17:09:49;;;;;;;4.85;3.95;;;;;;;20.96;66.42;95614.00;10330115;28;96985;-61
2022/08/18 17:14:54;;;;;;;5.38;4.88;;;;;;;20.97;66.80;95599.69;10329595;28;98708;-58
2022/08/18 17:19:57;;;;;;;4.78;4.35;;;;;;;21.09;66.39;95597.88;10327165;28;97091;-58
2022/08/18 17:25:02;;;;;;;7.60;4.00;;;;;;;21.19;67.09;95599.13;10325014;28;96842;-58
2022/08/18 17:30:11;;;;;;;5.10;4.00;;;;;;;21.22;66.25;95591.50;10327239;28;97420;-58
2022/08/18 17:35:19;;;;;;;4.38;3.95;;;;;;;21.12;65.80;95592.09;10325236;28;98480;-58
2022/08/18 17:40:29;;;;;;;5.20;3.95;;;;;;;20.98;65.62;95590.72;10319092;28;98029;-59
2022/08/18 17:45:34;;;;;;;4.60;4.00;;;;;;;20.94;66.16;95584.22;10327883;28;99175;-58
2022/08/18 17:56:07;;;;;;;3.97;3.22;;;;;;;20.88;66.26;95585.16;10324332;28;97162;-58
2022/08/18 18:01:14;;;;;;;4.60;3.35;;;;;;;20.80;63.59;95580.97;10328809;28;98421;-58
2022/08/18 18:06:28;;;;;;;7.07;3.58;;;;;;;20.77;65.31;95594.69;10329717;28;96870;-58
2022/08/18 18:11:35;;;;;;;5.13;3.25;;;;;;;20.73;65.16;95581.03;10330649;28;97135;-57
2022/08/18 18:16:39;;;;;;;4.60;3.10;;;;;;;20.76;64.48;95577.16;10330420;28;96803;-58
2022/08/18 18:21:42;;;;;;;6.65;3.58;;;;;;;20.69;64.35;95587.03;10323774;28;97139;-57
2022/08/18 18:27:24;;;;;;;4.40;2.97;;;;;;;20.64;63.39;95594.88;10327907;28;97035;-58
2022/08/18 18:32:33;;;;;;;5.18;4.65;;;;;;;20.57;63.42;95602.94;10321287;28;96985;-57
2022/08/18 18:37:45;;;;;;;5.68;4.03;;;;;;;20.47;62.40;95605.31;10334100;28;96938;-60
2022/08/18 18:42:49;;;;;;;7.68;6.03;;;;;;;20.41;62.64;95616.81;10336457;28;97697;-58
2022/08/18 18:48:03;;;;;;;4.97;2.80;;;;;;;20.37;62.70;95627.91;10334586;28;96997;-58
2022/08/18 18:53:20;;;;;;;5.57;4.78;;;;;;;20.42;62.51;95637.00;10335799;28;96843;-58
2022/08/18 18:58:32;;;;;;;4.60;4.10;;;;;;;20.45;63.11;95655.13;10336491;28;97546;-58
2022/08/18 19:03:44;;;;;;;3.92;3.20;;;;;;;20.41;61.85;95654.78;10331333;28;98271;-58
2022/08/18 19:08:56;;;;;;;3.65;3.08;;;;;;;20.35;62.22;95661.78;10335811;28;96807;-57
2022/08/18 19:14:03;;;;;;;5.55;3.08;;;;;;;20.32;61.24;95667.53;10334881;28;97604;-58
2022/08/18 19:19:16;;;;;;;3.42;2.80;;;;;;;20.34;61.46;95665.47;10334368;28;97174;-58
2022/08/18 19:24:47;;;;;;;3.92;3.05;;;;;;;20.34;61.50;95678.72;10335267;28;96796;-58
2022/08/18 19:29:53;;;;;;;3.42;2.60;;;;;;;20.27;61.19;95683.31;10330392;28;96993;-58
2022/08/18 19:35:00;;;;;;;4.78;2.70;;;;;;;20.24;61.16;95678.44;10333393;28;97511;-59
2022/08/18 19:40:17;;;;;;;3.78;2.90;;;;;;;20.13;61.79;95684.47;10333925;28;96773;-58
2022/08/18 19:45:30;;;;;;;34.38;30.70;;;;;;;20.19;61.90;95688.91;10333935;28;96717;-57
2022/08/18 19:50:40;;;;;;;8.52;6.15;;;;;;;20.24;62.14;95685.59;10335704;28;97543;-58
2022/08/18 19:56:09;;;;;;;7.88;7.18;;;;;;;20.24;62.24;95689.06;10334676;28;96810;-58
2022/08/18 20:01:22;;;;;;;3.58;2.83;;;;;;;20.22;61.62;95703.56;10331338;28;96830;-58
2022/08/18 20:06:51;;;;;;;5.07;2.55;;;;;;;20.12;60.81;95699.59;10332270;28;97098;-59
2022/08/18 20:12:24;;;;;;;4.55;2.67;;;;;;;20.02;60.87;95698.47;10338919;28;97049;-57
2022/08/18 20:17:26;;;;;;;3.38;2.90;;;;;;;19.99;60.43;95711.16;10332746;28;98891;-58
2022/08/18 20:22:34;;;;;;;3.25;2.40;;;;;;;19.88;60.42;95708.41;10328897;28;99492;-57
2022/08/18 20:27:39;;;;;;;3.90;2.45;;;;;;;19.80;60.24;95712.09;10333102;28;96866;-59
2022/08/18 20:32:42;;;;;;;3.90;2.70;;;;;;;19.75;60.65;95715.44;10333257;28;97806;-58
2022/08/18 20:37:46;;;;;;;3.20;2.90;;;;;;;19.70;60.45;95727.72;10333117;28;96973;-58
2022/08/18 20:42:49;;;;;;;7.35;2.97;;;;;;;19.60;59.36;95723.72;10331488;28;96762;-58
2022/08/18 20:48:26;;;;;;;4.10;3.25;;;;;;;19.65;58.93;95738.97;10327897;28;96833;-58
2022/08/18 20:53:58;;;;;;;3.20;2.83;;;;;;;19.67;59.45;95728.94;10315869;28;97046;-59
2022/08/18 20:59:07;;;;;;;4.25;3.00;;;;;;;19.62;59.35;95744.69;10322528;28;98023;-58
2022/08/18 21:04:10;;;;;;;3.55;3.08;;;;;;;19.62;58.53;95736.75;10325095;28;98774;-58
2022/08/18 21:09:18;;;;;;;3.22;2.85;;;;;;;19.63;58.89;95719.81;10312322;28;98259;-57
2022/08/18 21:14:25;;;;;;;4.22;3.20;;;;;;;19.55;58.15;95718.25;10303836;28;96758;-59
2022/08/18 21:19:40;;;;;;;3.13;2.80;;;;;;;19.53;58.58;95717.66;10311058;28;97313;-58
2022/08/18 21:24:49;;;;;;;5.72;3.38;;;;;;;19.44;59.19;95725.06;10324976;28;96872;-58
2022/08/18 21:29:53;;;;;;;4.30;2.78;;;;;;;19.33;59.22;95732.88;10327851;28;96830;-58
2022/08/18 21:34:56;;;;;;;3.65;3.30;;;;;;;19.33;60.19;95730.25;10327110;28;96850;-58
2022/08/18 21:40:02;;;;;;;3.50;3.10;;;;;;;19.33;59.72;95738.19;10326725;28;96899;-58
2022/08/18 21:45:12;;;;;;;3.25;2.95;;;;;;;19.27;59.36;95726.63;10323449;28;97743;-58
2022/08/18 21:50:18;;;;;;;3.85;3.20;;;;;;;19.22;60.38;95729.91;10319230;28;97461;-58
2022/08/18 21:55:27;;;;;;;3.95;3.38;;;;;;;19.21;60.51;95738.88;10330952;28;96816;-59
2022/08/18 22:00:33;;;;;;;3.85;3.00;;;;;;;19.20;60.42;95734.59;10327228;28;97454;-59
2022/08/18 22:05:40;;;;;;;3.60;3.05;;;;;;;19.12;59.86;95740.16;10323706;28;96886;-58
2022/08/18 22:16:49;;;;;;;4.47;2.83;;;;;;;19.05;60.90;95734.09;10330324;28;97129;-57
2022/08/18 22:22:00;;;;;;;4.43;3.35;;;;;;;18.96;62.22;95735.38;10328482;28;97095;-59
2022/08/18 22:27:11;;;;;;;4.13;3.72;;;;;;;19.02;62.11;95731.91;10334148;28;98060;-58
2022/08/18 22:32:17;;;;;;;3.95;3.55;;;;;;;19.07;62.48;95745.28;10334691;28;96722;-58
2022/08/18 22:37:23;;;;;;;3.40;2.93;;;;;;;19.09;62.95;95747.72;10335257;28;97310;-59
2022/08/18 22:42:31;;;;;;;4.10;3.22;;;;;;;18.91;64.26;95746.59;10324439;28;96969;-58
2022/08/18 22:47:34;;;;;;;3.75;3.30;;;;;;;18.77;64.71;95745.81;10319758;28;96871;-58
2022/08/18 22:52:48;;;;;;;4.18;3.30;;;;;;;18.83;64.35;95738.88;10305373;28;96794;-59
2022/08/18 22:57:53;;;;;;;4.60;2.92;;;;;;;18.91;64.04;95740.50;10306971;28;98021;-59
2022/08/18 23:02:59;;;;;;;5.57;3.08;;;;;;;18.92;63.92;95740.28;10304211;28;96810;-58
2022/08/18 23:08:02;;;;;;;5.15;3.17;;;;;;;18.94;64.67;95735.59;10301030;28;98548;-58
2022/08/18 23:13:06;;;;;;;4.00;3.45;;;;;;;18.88;65.58;95737.25;10313460;28;96821;-58
2022/08/18 23:18:10;;;;;;;4.50;3.63;;;;;;;18.85;64.61;95742.94;10308154;28;97047;-58
2022/08/18 23:23:14;;;;;;;6.38;3.72;;;;;;;18.84;65.60;95743.94;10316678;28;96915;-57
2022/08/18 23:28:19;;;;;;;4.65;3.30;;;;;;;18.83;66.36;95738.88;10318424;28;98381;-59
2022/08/18 23:33:22;;;;;;;7.28;3.60;;;;;;;18.69;66.47;95743.44;10318950;28;96877;-59
2022/08/18 23:38:26;;;;;;;3.42;3.13;;;;;;;18.54;66.96;95734.97;10329334;28;97918;-58
2022/08/18 23:43:36;;;;;;;3.95;3.30;;;;;;;18.57;67.46;95742.44;10318372;28;96865;-58
2022/08/18 23:48:38;;;;;;;5.35;3.42;;;;;;;18.55;66.95;95736.56;10323843;28;97080;-58
2022/08/18 23:53:41;;;;;;;3.78;3.17;;;;;;;18.47;67.38;95749.00;10331748;28;99016;-59
2022/08/18 23:58:46;;;;;;;5.40;3.53;;;;;;;18.39;67.98;95741.28;10321088;28;96813;-58
